KSQI/SQI METAR and TAF weather

Enter ICAO airport designator
Station Type Date Time Source
KSQI METAR 2020/01/28 20:56 UTC NOAA

KSQI 282056Z 28004KT 8SM OVC010 M02/M03 A3012 RMK AO2 SLP067 60000 T10171033 53004 FZRANO


Station Type Date Time Source
KSQI Decoded METAR 2020/01/28 20:56 UTC NOAA

Sterling Rockfalls, IL, United States (KSQI) 41-45N 089-40W
Jan 28, 2020 - 03:56 PM EST / 2020.01.28 2056 UTC
Wind: from the W (280 degrees) at 5 MPH (4 KT):0
Visibility: 8 mile(s):0
Sky conditions: overcast
Temperature: 28.9 F (-1.7 C)
Windchill: 23 F (-5 C):1
Dew Point: 26.1 F (-3.3 C)
Relative Humidity: 88%
Pressure (altimeter): 30.12 in. Hg (1019 hPa)
Pressure tendency: 0.01 inches (0.4 hPa) higher than three hours ago
ob: KSQI 282056Z 28004KT 8SM OVC010 M02/M03 A3012 RMK AO2 SLP067 60000 T10171033 53004 FZRANO
cycle: 21

Station Type Date Time Source
KSQI TAF UTC NOAA

Error!

Example: see airport list